Time;durP1;ratioP1;P1;durP2;ratioP2;P2;SDS_P1;SDS_P2;PMS_P1;PMS_P2;Temp;Humidity;BMP_temperature;BMP_pressure;BME280_temperature;BME280_humidity;BME280_pressure;Samples;Min_cycle;Max_cycle;Signal;HPM_P1;HPM_P2
2021/12/24 00:01:10;;;;;;;26.63;14.10;;;8.10;99.90;;;6.57;100.00;100134.38;2566455;30;138498;-41
2021/12/24 00:03:39;;;;;;;28.88;14.90;;;8.10;99.90;;;6.60;100.00;100133.97;2568089;30;137576;-41
2021/12/24 00:06:08;;;;;;;29.17;14.48;;;8.20;99.90;;;6.59;100.00;100132.31;2568414;30;139149;-41
2021/12/24 00:08:37;;;;;;;28.50;13.98;;;8.20;99.90;;;6.59;100.00;100126.88;2568950;30;138493;-41
2021/12/24 00:11:06;;;;;;;28.05;14.25;;;8.20;99.90;;;6.54;100.00;100119.38;2568263;30;139052;-41
2021/12/24 00:13:41;;;;;;;27.02;13.57;;;8.20;99.90;;;6.54;100.00;100126.66;2569399;30;137031;-41
2021/12/24 00:16:25;;;;;;;26.75;12.93;;;8.10;99.90;;;6.58;100.00;100131.50;2567085;30;138190;-41
2021/12/24 00:19:01;;;;;;;27.05;13.02;;;8.20;99.90;;;6.58;100.00;100122.50;2568631;30;137282;-41
2021/12/24 00:38:05;;;;;;;25.00;13.13;;;8.20;99.90;;;6.62;100.00;100111.06;2568627;30;139632;-41
2021/12/24 00:40:39;;;;;;;23.25;12.70;;;8.20;99.90;;;6.61;100.00;100111.25;2568159;30;139787;-41
2021/12/24 00:43:10;;;;;;;24.65;13.07;;;8.20;99.90;;;6.61;100.00;100111.25;2566228;30;139471;-41
2021/12/24 00:45:42;;;;;;;24.48;12.75;;;8.20;99.90;;;6.64;100.00;100107.31;2566679;30;138464;-41
2021/12/24 00:48:17;;;;;;;25.15;13.10;;;8.20;99.90;;;6.60;100.00;100113.16;2567869;30;138833;-41
2021/12/24 00:56:08;;;;;;;21.15;11.55;;;8.20;99.90;;;6.58;100.00;100101.66;2568836;30;136849;-41
2021/12/24 00:58:37;;;;;;;20.52;10.95;;;8.20;99.90;;;6.55;100.00;100095.81;2566984;30;140713;-41
2021/12/24 01:01:08;;;;;;;23.60;12.88;;;8.20;99.90;;;6.61;100.00;100101.25;2567701;30;136927;-41
2021/12/24 01:03:36;;;;;;;22.58;12.52;;;8.20;99.90;;;6.58;100.00;100100.81;2568867;30;137484;-41
2021/12/24 01:06:04;;;;;;;22.65;11.90;;;8.20;99.90;;;6.57;100.00;100089.16;2567301;30;139231;-41
2021/12/24 01:08:33;;;;;;;20.75;11.35;;;8.20;99.90;;;6.52;100.00;100088.09;2568121;30;138262;-41
2021/12/24 01:11:06;;;;;;;21.85;11.30;;;8.20;99.90;;;6.58;100.00;100095.41;2566732;30;137425;-41
2021/12/24 01:13:33;;;;;;;21.98;11.93;;;8.20;99.90;;;6.60;100.00;100096.88;2568152;30;139201;-41
2021/12/24 01:16:07;;;;;;;20.90;11.85;;;8.20;99.90;;;6.61;100.00;100092.28;2567611;30;139754;-41
2021/12/24 01:18:58;;;;;;;20.67;11.88;;;8.20;99.90;;;6.61;100.00;100093.13;2567978;30;140652;-41
2021/12/24 01:24:01;;;;;;;21.17;12.27;;;8.20;99.90;;;6.66;100.00;100087.09;2567269;30;138718;-41
2021/12/24 01:37:57;;;;;;;24.08;13.60;;;8.30;99.90;;;6.68;100.00;100087.72;2567207;30;139169;-41
2021/12/24 01:40:40;;;;;;;27.95;14.15;;;8.20;99.90;;;6.70;100.00;100088.38;2567375;30;139361;-41
2021/12/24 01:43:08;;;;;;;24.27;13.43;;;8.30;99.90;;;6.70;100.00;100085.66;2567549;30;140176;-41
2021/12/24 01:45:37;;;;;;;24.27;14.25;;;8.30;99.90;;;6.69;100.00;100075.84;2567999;30;138291;-41
2021/12/24 01:48:09;;;;;;;26.85;14.70;;;8.30;99.90;;;6.69;100.00;100091.25;2568092;30;139636;-41
2021/12/24 01:50:42;;;;;;;23.95;13.27;;;8.30;99.90;;;6.70;100.00;100084.81;2568050;30;139853;-41
2021/12/24 01:53:10;;;;;;;25.40;13.98;;;8.30;99.90;;;6.71;100.00;100081.91;2567235;30;138660;-41
2021/12/24 01:55:41;;;;;;;28.70;15.35;;;8.30;99.90;;;6.73;100.00;100081.69;2566088;30;140614;-41
2021/12/24 01:58:10;;;;;;;27.83;14.57;;;8.30;99.90;;;6.75;100.00;100087.72;2567372;30;139282;-41
2021/12/24 02:00:45;;;;;;;27.10;14.57;;;8.30;99.90;;;6.73;100.00;100087.94;2568594;30;140561;-41
2021/12/24 02:03:13;;;;;;;31.20;15.73;;;8.30;99.90;;;6.79;100.00;100089.00;2568340;30;138989;-41
2021/12/24 02:05:44;;;;;;;25.65;14.55;;;8.40;99.90;;;6.79;100.00;100086.31;2568169;30;137403;-41
2021/12/24 02:08:14;;;;;;;26.67;14.95;;;8.40;99.90;;;6.81;100.00;100089.63;2567751;30;138982;-41
2021/12/24 02:10:44;;;;;;;28.90;15.07;;;8.40;99.90;;;6.84;100.00;100085.66;2564130;30;139939;-41
2021/12/24 02:13:14;;;;;;;28.35;15.57;;;8.40;99.90;;;6.84;100.00;100082.94;2565790;30;139841;-41
2021/12/24 02:16:03;;;;;;;29.90;15.52;;;8.40;99.90;;;6.86;100.00;100087.13;2567187;30;139104;-41
2021/12/24 02:28:16;;;;;;;25.85;14.20;;;8.40;99.90;;;6.89;100.00;100070.44;2567765;30;138386;-41
2021/12/24 02:30:06;;;;;;;27.10;15.27;;;8.50;99.90;;;6.96;100.00;100065.03;2566657;30;139146;-41
2021/12/24 02:32:34;;;;;;;28.05;15.32;;;8.50;99.90;;;6.91;100.00;100067.53;2567930;30;139632;-41
2021/12/24 02:35:02;;;;;;;33.75;15.45;;;8.50;99.90;;;6.98;100.00;100060.25;2564923;30;138042;-41
2021/12/24 02:37:29;;;;;;;29.75;15.85;;;8.50;99.90;;;6.99;100.00;100061.91;2566622;30;139748;-41
2021/12/24 02:39:57;;;;;;;32.00;16.35;;;8.50;99.90;;;7.03;100.00;100048.78;2565392;30;137521;-41
2021/12/24 02:42:25;;;;;;;33.13;15.15;;;8.60;99.90;;;7.06;100.00;100051.06;2568692;30;137446;-41
2021/12/24 02:44:53;;;;;;;39.65;17.20;;;8.60;99.90;;;7.03;100.00;100040.66;2567518;30;136776;-41
2021/12/24 02:55:14;;;;;;;33.20;16.48;;;8.60;99.90;;;7.08;100.00;100037.28;2567942;30;139032;-41
2021/12/24 02:57:43;;;;;;;31.85;17.80;;;8.60;99.90;;;7.08;100.00;100040.84;2567990;30;137505;-41
2021/12/24 03:00:19;;;;;;;30.48;16.30;;;8.70;99.90;;;7.03;100.00;100036.03;2567606;30;136798;-41
2021/12/24 03:02:48;;;;;;;30.85;16.42;;;8.60;99.90;;;7.01;100.00;100038.13;2567253;30;138875;-41
2021/12/24 03:05:19;;;;;;;31.52;16.13;;;8.60;99.90;;;7.03;100.00;100033.31;2567370;30;139169;-41
2021/12/24 03:07:47;;;;;;;29.83;16.25;;;8.60;99.90;;;7.01;100.00;100040.84;2566250;30;137463;-41
2021/12/24 03:10:19;;;;;;;30.27;16.10;;;8.60;99.90;;;7.07;100.00;100038.34;2568322;30;138998;-41
2021/12/24 03:15:25;;;;;;;33.85;16.80;;;8.60;99.90;;;7.08;100.00;100040.84;2568625;30;138484;-39
2021/12/24 03:17:57;;;;;;;31.25;16.75;;;8.70;99.90;;;7.05;100.00;100039.38;2566153;30;139182;-38
2021/12/24 03:20:28;;;;;;;28.63;16.08;;;8.60;99.90;;;7.15;100.00;100038.13;2569646;30;136775;-39
2021/12/24 03:23:08;;;;;;;29.10;15.48;;;8.70;99.90;;;7.13;100.00;100042.91;2568340;30;140637;-38
2021/12/24 03:25:37;;;;;;;29.80;15.25;;;8.70;99.90;;;7.12;100.00;100035.81;2564913;30;138767;-38
2021/12/24 03:28:05;;;;;;;29.33;15.18;;;8.70;99.90;;;7.15;100.00;100052.53;2570596;30;139161;-39
2021/12/24 03:30:33;;;;;;;26.20;15.43;;;8.70;99.90;;;7.14;100.00;100044.59;2568380;30;138963;-38
2021/12/24 03:33:01;;;;;;;27.35;14.40;;;8.70;99.90;;;7.16;100.00;100050.63;2565685;30;139065;-39
2021/12/24 03:35:28;;;;;;;28.13;14.52;;;8.70;99.90;;;7.18;100.00;100043.97;2568722;30;136787;-38
2021/12/24 03:37:56;;;;;;;27.60;15.32;;;8.80;99.90;;;7.13;100.00;100042.91;2565138;30;139634;-38
2021/12/24 03:40:24;;;;;;;27.67;14.38;;;8.70;99.90;;;7.16;100.00;100045.22;2568989;30;140217;-38
2021/12/24 03:42:51;;;;;;;27.42;14.60;;;8.70;99.90;;;7.14;100.00;100040.00;2569521;30;139221;-38
2021/12/24 03:45:36;;;;;;;;;;;8.70;99.90;;;7.13;100.00;100040.19;2565650;30;139362;-38
2021/12/24 03:48:14;;;;;;;22.98;13.10;;;8.70;99.90;;;7.13;100.00;100032.91;2569914;30;140439;-38
2021/12/24 03:50:55;;;;;;;24.88;13.90;;;8.70;99.90;;;7.11;100.00;100035.00;2570448;30;137951;-39
2021/12/24 03:56:09;;;;;;;24.98;13.90;;;8.70;99.90;;;7.07;100.00;100031.03;2570421;30;140458;-38
2021/12/24 03:58:38;;;;;;;26.40;14.30;;;8.70;99.90;;;7.09;100.00;100036.25;2570527;30;138638;-38
2021/12/24 04:01:36;;;;;;;22.67;13.07;;;8.60;99.90;;;7.12;100.00;100033.09;2569366;30;137032;-38
2021/12/24 04:04:26;;;;;;;25.10;14.15;;;8.70;99.90;;;7.14;100.00;100037.28;2566421;30;137666;-39
2021/12/24 04:07:14;;;;;;;26.83;14.32;;;8.70;99.90;;;7.17;100.00;100044.19;2569870;30;136800;-38
2021/12/24 04:10:20;;;;;;;25.60;13.85;;;8.70;99.90;;;7.14;100.00;100050.84;2569355;30;137209;-38
2021/12/24 04:13:13;;;;;;;22.95;13.35;;;8.70;99.90;;;7.13;100.00;100040.19;2569313;30;136890;-39
2021/12/24 04:15:41;;;;;;;28.58;14.55;;;8.70;99.90;;;7.17;100.00;100049.63;2570480;30;138243;-39
2021/12/24 04:26:41;;;;;;;25.58;14.20;;;8.70;99.90;;;7.16;100.00;100047.91;2571141;30;138330;-40
2021/12/24 04:29:09;;;;;;;25.80;14.60;;;8.70;99.90;;;7.20;100.00;100046.47;2568007;30;139563;-38
2021/12/24 04:31:55;;;;;;;29.33;14.65;;;8.70;99.90;;;7.17;100.00;100039.59;2570923;30;140128;-38
2021/12/24 04:34:46;;;;;;;31.38;15.15;;;8.80;99.90;;;7.17;100.00;100038.75;2569609;30;136903;-39
2021/12/24 04:51:01;;;;;;;26.27;15.20;;;8.70;99.90;;;7.20;100.00;100046.47;2570267;30;138800;-39
2021/12/24 04:51:23;;;;;;;28.70;15.35;;;8.80;99.90;;;7.23;100.00;100056.06;2568283;30;137382;-38
2021/12/24 05:02:50;;;;;;;32.90;14.40;;;8.80;99.90;;;7.29;100.00;100047.06;2571027;30;138409;-39
2021/12/24 05:05:38;;;;;;;28.17;14.98;;;8.80;99.90;;;7.29;100.00;100049.78;2569999;30;140719;-39
2021/12/24 05:08:29;;;;;;;26.58;14.48;;;8.80;99.90;;;7.28;100.00;100051.69;2571178;30;138980;-39
2021/12/24 05:10:57;;;;;;;34.45;15.10;;;8.80;99.90;;;7.27;100.00;100057.31;2568284;30;138681;-39
2021/12/24 05:13:25;;;;;;;29.15;15.60;;;8.80;99.90;;;7.26;100.00;100059.19;2569720;30;139832;-39
2021/12/24 05:16:17;;;;;;;32.20;16.25;;;8.80;99.90;;;7.28;100.00;100062.53;2567716;30;137513;-38
2021/12/24 05:22:00;;;;;;;27.60;15.45;;;8.90;99.90;;;7.25;100.00;100064.81;2570084;30;136980;-39
2021/12/24 05:24:31;;;;;;;31.92;16.10;;;8.80;99.90;;;7.26;100.00;100074.63;2569004;30;138586;-38
2021/12/24 05:27:03;;;;;;;29.63;15.75;;;8.80;99.90;;;7.29;100.00;100068.78;2568315;30;139602;-38
2021/12/24 05:29:32;;;;;;;29.85;15.95;;;8.80;99.90;;;7.26;100.00;100063.78;2569161;30;139455;-38
2021/12/24 05:32:00;;;;;;;31.20;15.18;;;8.80;99.90;;;7.27;100.00;100077.16;2569734;30;139088;-39
2021/12/24 05:34:28;;;;;;;34.80;16.02;;;8.80;99.90;;;7.31;100.00;100067.53;2569362;30;137053;-38
2021/12/24 05:36:56;;;;;;;30.15;15.15;;;8.90;99.90;;;7.31;100.00;100072.97;2569155;30;138213;-38
2021/12/24 05:39:23;;;;;;;30.85;15.13;;;8.90;99.90;;;7.32;100.00;100065.69;2567746;30;136976;-39
2021/12/24 05:41:54;;;;;;;30.65;15.57;;;8.90;99.90;;;7.27;100.00;100071.72;2568914;30;138650;-39
2021/12/24 05:44:23;;;;;;;30.45;14.80;;;8.80;99.90;;;7.24;100.00;100071.28;2568705;30;140987;-39
2021/12/24 05:47:01;;;;;;;28.88;15.32;;;8.80;99.90;;;7.30;100.00;100065.06;2569982;30;141013;-39
2021/12/24 05:49:49;;;;;;;27.10;14.73;;;8.90;99.90;;;7.27;100.00;100073.59;2568440;30;136957;-39
2021/12/24 05:52:55;;;;;;;32.38;15.77;;;8.80;99.90;;;7.28;100.00;100073.41;2567023;30;137484;-39
2021/12/24 05:55:48;;;;;;;30.58;15.85;;;8.80;99.90;;;7.29;100.00;100068.78;2567216;30;139770;-39
2021/12/24 05:58:21;;;;;;;31.42;14.55;;;8.90;99.90;;;7.26;100.00;100056.50;2567788;30;139043;-39
2021/12/24 06:00:49;;;;;;;33.05;14.90;;;8.90;99.90;;;7.29;100.00;100068.78;2566727;30;138677;-39
2021/12/24 06:03:22;;;;;;;26.92;15.20;;;8.80;99.90;;;7.28;100.00;100061.69;2566957;30;139549;-39
2021/12/24 06:05:50;;;;;;;31.85;15.85;;;8.90;99.90;;;7.28;100.00;100057.13;2566553;30;137932;-39
2021/12/24 06:08:17;;;;;;;32.05;15.38;;;8.80;99.90;;;7.20;100.00;100058.16;2569691;30;138228;-39
2021/12/24 06:10:45;;;;;;;31.02;16.13;;;8.80;99.90;;;7.26;100.00;100069.22;2567517;30;137696;-38
2021/12/24 06:13:12;;;;;;;30.05;14.98;;;8.80;99.90;;;7.25;100.00;100073.81;2571568;30;137834;-39
2021/12/24 06:15:46;;;;;;;27.50;14.95;;;8.80;99.90;;;7.23;100.00;100073.19;2570327;30;137818;-39
2021/12/24 06:18:39;;;;;;;27.80;14.90;;;8.80;99.90;;;7.18;100.00;100081.94;2568473;30;137425;-39
2021/12/24 06:21:04;;;;;;;26.03;14.07;;;8.80;99.90;;;7.16;100.00;100064.19;2570142;30;137359;-39
2021/12/24 06:23:33;;;;;;;26.77;15.25;;;8.80;99.90;;;7.24;100.00;100085.72;2568112;30;137609;-39
2021/12/24 06:26:01;;;;;;;29.50;14.85;;;8.80;99.90;;;7.26;100.00;100075.47;2569722;30;138271;-39
2021/12/24 06:28:32;;;;;;;29.25;15.55;;;8.80;99.90;;;7.20;100.00;100073.63;2569351;30;138372;-39
2021/12/24 06:31:01;;;;;;;30.23;15.02;;;8.80;99.90;;;7.26;100.00;100089.06;2569196;30;137297;-39
2021/12/24 06:33:29;;;;;;;29.98;14.80;;;8.80;99.90;;;7.26;100.00;100072.78;2570328;30;138302;-39
2021/12/24 06:35:57;;;;;;;28.77;14.32;;;8.80;99.90;;;7.31;100.00;100078.41;2570340;30;138061;-39
2021/12/24 06:38:25;;;;;;;31.73;14.10;;;8.90;99.90;;;7.36;100.00;100082.34;2568996;30;138448;-39
2021/12/24 06:40:53;;;;;;;24.13;14.48;;;8.90;99.90;;;7.38;100.00;100083.84;2569732;30;137989;-38
2021/12/24 06:43:22;;;;;;;31.23;14.15;;;8.90;99.90;;;7.38;100.00;100085.69;2568122;30;136925;-38
2021/12/24 06:45:50;;;;;;;25.17;13.70;;;8.90;99.90;;;7.41;100.00;100074.41;2569684;30;137594;-39
2021/12/24 06:48:17;;;;;;;;;;;8.90;99.90;;;7.37;100.00;100084.03;2570505;30;138468;-39
2021/12/24 06:50:46;;;;;;;28.90;13.60;;;9.00;99.90;;;7.36;100.00;100088.63;2571264;30;137023;-39
2021/12/24 06:53:17;;;;;;;29.73;13.90;;;8.90;99.90;;;7.34;100.00;100088.84;2569348;30;139112;-39
2021/12/24 06:55:46;;;;;;;26.92;14.27;;;8.90;99.90;;;7.37;100.00;100089.47;2569299;30;137459;-39
2021/12/24 06:58:14;;;;;;;30.77;13.98;;;8.90;99.90;;;7.38;100.00;100093.84;2567516;30;140389;-39
2021/12/24 07:00:42;;;;;;;27.08;14.13;;;8.90;99.90;;;7.37;100.00;100084.88;2569741;30;139078;-38
2021/12/24 07:03:10;;;;;;;27.80;13.70;;;8.90;99.90;;;7.39;100.00;100084.66;2569983;30;138798;-39
2021/12/24 07:05:37;;;;;;;27.92;14.10;;;9.00;99.90;;;7.36;100.00;100068.78;2569435;30;137364;-39
2021/12/24 07:08:05;;;;;;;24.88;13.38;;;8.90;99.90;;;7.33;100.00;100078.19;2571235;30;138346;-39
2021/12/24 07:10:33;;;;;;;31.23;14.60;;;8.90;99.90;;;7.38;100.00;100077.56;2567837;30;138471;-39
2021/12/24 07:13:00;;;;;;;27.25;14.38;;;8.90;99.90;;;7.38;100.00;100074.84;2569683;30;137961;-39
2021/12/24 07:15:28;;;;;;;24.50;13.63;;;8.90;99.90;;;7.36;100.00;100080.50;2569693;30;136817;-39
2021/12/24 07:17:55;;;;;;;27.65;13.50;;;8.90;99.90;;;7.38;100.00;100089.25;2569961;30;137307;-39
2021/12/24 07:20:23;;;;;;;25.45;14.00;;;8.90;99.90;;;7.34;100.00;100082.59;2567766;30;137963;-39
2021/12/24 07:22:51;;;;;;;25.85;13.57;;;8.90;99.90;;;7.36;100.00;100094.06;2569665;30;137806;-39
2021/12/24 07:25:18;;;;;;;28.02;14.18;;;8.90;99.90;;;7.33;100.00;100095.31;2568924;30;138156;-39
2021/12/24 07:27:46;;;;;;;28.48;14.43;;;8.90;99.90;;;7.32;100.00;100106.38;2569850;30;139012;-39
2021/12/24 07:30:14;;;;;;;31.77;12.98;;;8.90;99.90;;;7.34;100.00;100105.13;2568905;30;137817;-39
2021/12/24 07:32:45;;;;;;;28.55;13.00;;;8.90;99.90;;;7.31;100.00;100108.25;2568867;30;137858;-39
2021/12/24 07:35:13;;;;;;;27.98;14.23;;;8.90;99.90;;;7.30;100.00;100108.47;2569216;30;137530;-39
2021/12/24 07:37:41;;;;;;;29.30;14.13;;;8.90;99.90;;;7.33;100.00;100108.06;2567750;30;137853;-39
2021/12/24 07:40:15;;;;;;;27.60;13.43;;;8.90;99.90;;;7.37;100.00;100090.31;2570643;30;137775;-39
2021/12/24 07:42:47;;;;;;;24.10;13.07;;;8.90;99.90;;;7.39;100.00;100092.78;2568542;30;138646;-38
2021/12/24 07:45:17;;;;;;;24.90;12.80;;;9.00;99.90;;;7.33;100.00;100098.03;2569049;30;138275;-39
2021/12/24 07:47:55;;;;;;;26.90;13.05;;;8.90;99.90;;;7.37;100.00;100101.16;2568839;30;139663;-38
2021/12/24 07:52:57;;;;;;;28.70;13.30;;;8.90;99.90;;;7.34;100.00;100096.16;2569636;30;138904;-38
2021/12/24 07:55:25;;;;;;;33.70;13.45;;;8.90;99.90;;;7.34;100.00;100109.72;2567094;30;137387;-39
2021/12/24 07:57:53;;;;;;;33.08;15.07;;;8.90;99.90;;;7.32;100.00;100107.19;2569130;30;137270;-39
2021/12/24 08:00:26;;;;;;;27.35;13.60;;;8.90;99.90;;;7.31;100.00;100107.44;2569147;30;137566;-39
2021/12/24 08:02:57;;;;;;;31.58;13.30;;;8.90;99.90;;;7.26;100.00;100102.63;2569331;30;139482;-39
2021/12/24 08:05:28;;;;;;;33.50;14.80;;;8.90;99.90;;;7.29;100.00;100102.19;2567046;30;137694;-38
2021/12/24 08:07:56;;;;;;;28.23;14.70;;;8.90;99.90;;;7.27;100.00;100104.28;2569437;30;137955;-39
2021/12/24 08:10:25;;;;;;;23.30;12.85;;;8.80;99.90;;;7.29;100.00;100102.19;2569623;30;137633;-38
2021/12/24 08:12:54;;;;;;;29.17;13.00;;;8.80;99.90;;;7.30;100.00;100109.28;2565011;30;137210;-39
2021/12/24 08:15:22;;;;;;;31.65;13.75;;;8.90;99.90;;;7.34;100.00;100109.72;2567320;30;138503;-39
2021/12/24 08:17:49;;;;;;;;;;;8.90;99.90;;;7.31;100.00;100116.38;2569067;30;138956;-39
2021/12/24 08:20:22;;;;;;;27.83;12.93;;;8.90;99.90;;;7.33;100.00;100111.59;2567944;30;137774;-38
2021/12/24 08:22:53;;;;;;;32.70;13.77;;;8.90;99.90;;;7.39;100.00;100095.50;2567939;30;139032;-39
2021/12/24 08:25:22;;;;;;;29.92;12.15;;;8.90;99.90;;;7.37;100.00;100097.59;2572361;30;137597;-39
2021/12/24 08:27:50;;;;;;;31.67;13.18;;;8.90;99.90;;;7.36;100.00;100104.06;2569936;30;139008;-38
2021/12/24 08:30:18;;;;;;;;;;;8.90;99.90;;;7.30;100.00;100093.00;2571094;30;136988;-39
2021/12/24 08:32:46;;;;;;;26.00;12.10;;;8.90;99.90;;;7.33;100.00;100092.59;2567969;30;138372;-39
2021/12/24 08:35:17;;;;;;;30.98;13.88;;;8.90;99.90;;;7.33;100.00;100100.72;2570916;30;136809;-39
2021/12/24 08:37:45;;;;;;;27.83;11.65;;;8.90;99.90;;;7.34;100.00;100091.53;2570531;30;137943;-39
2021/12/24 08:40:14;;;;;;;31.25;12.27;;;8.90;99.90;;;7.40;100.00;100089.88;2570907;30;136991;-38
2021/12/24 08:42:42;;;;;;;22.15;12.73;;;8.90;99.90;;;7.37;100.00;100086.75;2570693;30;138659;-39
2021/12/24 08:45:10;;;;;;;24.77;12.57;;;8.90;99.90;;;7.37;100.00;100087.59;2567145;30;137526;-39
2021/12/24 08:47:39;;;;;;;28.95;12.52;;;8.90;99.90;;;7.41;100.00;100088.84;2570026;30;137501;-39
2021/12/24 08:50:11;;;;;;;32.10;13.70;;;9.00;99.90;;;7.44;100.00;100095.75;2569409;30;138350;-39
2021/12/24 08:52:42;;;;;;;28.80;12.77;;;9.00;99.90;;;7.44;100.00;100084.88;2569672;30;138133;-39
2021/12/24 08:55:10;;;;;;;28.48;13.65;;;9.00;99.90;;;7.46;100.00;100094.47;2569426;30;138335;-38
2021/12/24 08:57:39;;;;;;;;;;;9.00;99.90;;;7.44;100.00;100093.03;2572063;30;138220;-39
2021/12/24 09:00:11;;;;;;;25.57;12.77;;;9.00;99.90;;;7.45;100.00;100084.66;2570025;30;137903;-39
2021/12/24 09:02:40;;;;;;;29.27;11.90;;;9.00;99.90;;;7.47;100.00;100085.28;2569875;30;139628;-39
2021/12/24 09:05:10;;;;;;;27.70;12.35;;;9.00;99.90;;;7.50;100.00;100073.19;2571971;30;137765;-38
2021/12/24 09:07:38;;;;;;;26.70;12.45;;;9.00;99.90;;;7.49;100.00;100074.22;2570185;30;137183;-38
2021/12/24 09:10:09;;;;;;;25.48;12.02;;;9.00;99.90;;;7.47;100.00;100065.47;2569743;30;137147;-39
2021/12/24 09:12:39;;;;;;;30.05;12.68;;;9.00;99.90;;;7.47;100.00;100066.28;2569983;30;139939;-39
2021/12/24 09:15:08;;;;;;;29.25;11.88;;;9.00;99.90;;;7.49;100.00;100058.75;2569082;30;138337;-41
2021/12/24 09:17:36;;;;;;;26.85;12.30;;;9.00;99.90;;;7.51;100.00;100064.00;2568543;30;138023;-41
2021/12/24 09:20:05;;;;;;;;;;;9.00;99.90;;;7.52;100.00;100060.22;2567886;30;137384;-41
2021/12/24 09:22:34;;;;;;;31.00;11.87;;;9.10;99.90;;;7.55;100.00;100062.50;2568444;30;137951;-41
2021/12/24 09:25:03;;;;;;;30.00;12.38;;;9.10;99.90;;;7.53;100.00;100059.19;2564629;30;138203;-41
2021/12/24 09:27:30;;;;;;;25.42;11.63;;;9.10;99.90;;;7.50;100.00;100062.31;2568569;30;138403;-41
2021/12/24 09:29:58;;;;;;;23.27;11.25;;;9.10;99.90;;;7.57;100.00;100065.84;2568770;30;137197;-41
2021/12/24 09:32:28;;;;;;;22.55;11.88;;;9.10;99.90;;;7.55;100.00;100057.09;2566178;30;138240;-41
2021/12/24 09:34:57;;;;;;;24.90;11.23;;;9.10;99.90;;;7.58;100.00;100058.56;2566566;30;137764;-41
2021/12/24 09:37:25;;;;;;;23.27;11.48;;;9.10;99.90;;;7.59;100.00;100068.38;2567163;30;137304;-41
2021/12/24 09:39:53;;;;;;;25.05;11.57;;;9.10;99.90;;;7.59;100.00;100054.78;2567980;30;137641;-41
2021/12/24 09:42:23;;;;;;;30.33;11.73;;;9.10;99.90;;;7.59;100.00;100052.91;2569009;30;138226;-41
2021/12/24 09:44:51;;;;;;;23.50;10.55;;;9.10;99.90;;;7.58;100.00;100053.94;2565501;30;137644;-41
2021/12/24 09:47:23;;;;;;;;;;;9.20;99.90;;;7.60;100.00;100053.75;2569191;30;138209;-41
2021/12/24 09:49:51;;;;;;;25.98;9.98;;;9.10;99.90;;;7.60;100.00;100054.56;2567562;30;137247;-41
2021/12/24 09:52:20;;;;;;;25.88;10.48;;;9.10;99.90;;;7.68;100.00;100049.94;2567931;30;138298;-41
2021/12/24 09:54:49;;;;;;;27.27;10.60;;;9.20;99.90;;;7.73;100.00;100048.28;2567710;30;138593;-41
2021/12/24 09:57:17;;;;;;;22.58;10.43;;;9.20;99.90;;;7.77;100.00;100048.69;2568097;30;138016;-41
2021/12/24 09:59:44;;;;;;;23.50;11.30;;;9.30;99.90;;;7.89;100.00;100051.59;2567445;30;137261;-41
2021/12/24 10:02:18;;;;;;;22.25;9.48;;;9.40;99.90;;;7.92;100.00;100057.41;2567814;30;138099;-41
2021/12/24 10:04:47;;;;;;;23.20;9.95;;;9.40;99.90;;;7.95;100.00;100044.44;2567359;30;137416;-41
2021/12/24 10:07:24;;;;;;;23.08;10.73;;;9.50;99.90;;;7.98;100.00;100053.00;2567687;30;137556;-41
2021/12/24 10:10:04;;;;;;;21.35;11.13;;;9.50;99.90;;;7.98;100.00;100053.00;2567126;30;137018;-41
2021/12/24 10:12:31;;;;;;;23.88;10.23;;;9.50;99.90;;;8.03;100.00;100046.94;2567727;30;137223;-41
2021/12/24 10:15:00;;;;;;;22.90;11.50;;;9.50;99.90;;;8.09;100.00;100043.34;2568727;30;136915;-41
2021/12/24 10:17:35;;;;;;;23.98;9.63;;;9.50;99.90;;;8.11;100.00;100054.84;2567486;30;137363;-41
2021/12/24 10:20:13;;;;;;;20.30;9.45;;;9.60;99.90;;;7.97;100.00;100026.06;2567773;30;138290;-41
2021/12/24 10:22:48;;;;;;;21.10;9.30;;;9.60;99.90;;;8.10;100.00;100055.06;2568390;30;138420;-41
2021/12/24 10:25:23;;;;;;;20.23;10.13;;;9.60;99.90;;;8.06;100.00;100058.19;2566878;30;138641;-40
2021/12/24 10:27:51;;;;;;;21.52;8.52;;;9.60;99.90;;;8.06;100.00;100066.34;2569139;30;138307;-41
2021/12/24 10:30:32;;;;;;;16.45;8.02;;;9.60;99.90;;;8.09;100.00;100054.22;2568357;30;137609;-41
2021/12/24 10:33:11;;;;;;;21.02;8.50;;;9.60;99.90;;;8.07;100.00;100062.56;2567301;30;138516;-41
2021/12/24 10:35:39;;;;;;;21.52;8.32;;;9.60;99.90;;;8.07;100.00;100061.75;2566903;30;138608;-41
2021/12/24 10:38:16;;;;;;;15.95;7.95;;;9.60;99.90;;;8.07;100.00;100059.03;2567204;30;138779;-41
2021/12/24 10:41:06;;;;;;;22.50;8.43;;;9.60;99.90;;;8.09;100.00;100056.09;2567818;30;137016;-41
2021/12/24 10:43:37;;;;;;;20.25;8.77;;;9.60;99.90;;;8.07;100.00;100054.44;2567598;30;138180;-41
2021/12/24 10:46:19;;;;;;;21.48;8.73;;;9.60;99.90;;;8.05;100.00;100058.44;2568166;30;137230;-41
2021/12/24 10:49:17;;;;;;;20.58;8.38;;;9.60;99.90;;;8.01;100.00;100059.91;2565846;30;138914;-41
2021/12/24 10:55:09;;;;;;;20.85;8.80;;;9.50;99.90;;;8.01;100.00;100049.84;2568495;30;138211;-41
2021/12/24 10:57:41;;;;;;;21.75;8.82;;;9.50;99.90;;;8.02;100.00;100056.13;2566842;30;136771;-41
2021/12/24 11:00:38;;;;;;;19.60;8.85;;;9.50;99.90;;;8.00;100.00;100055.53;2568617;30;139171;-41
2021/12/24 11:03:14;;;;;;;17.45;8.23;;;9.50;99.90;;;7.99;100.00;100056.56;2568309;30;136888;-41
2021/12/24 11:05:48;;;;;;;16.52;8.55;;;9.50;99.90;;;7.94;100.00;100045.50;2567848;30;138333;-41
2021/12/24 11:08:23;;;;;;;21.50;8.40;;;9.50;99.90;;;7.99;100.00;100051.13;2568441;30;136767;-41
2021/12/24 11:10:57;;;;;;;20.92;8.85;;;9.50;99.90;;;8.02;100.00;100048.81;2567472;30;137755;-41
2021/12/24 11:13:39;;;;;;;23.05;9.35;;;9.50;99.90;;;8.04;100.00;100046.72;2566967;30;137505;-41
2021/12/24 11:16:18;;;;;;;18.02;8.15;;;9.50;99.90;;;8.06;100.00;100049.22;2565548;30;139265;-41
2021/12/24 11:19:00;;;;;;;20.05;8.90;;;9.60;99.90;;;8.02;100.00;100048.00;2567384;30;136912;-41
2021/12/24 11:21:31;;;;;;;20.75;8.32;;;9.50;99.90;;;8.06;100.00;100046.50;2566994;30;139257;-41
2021/12/24 11:23:59;;;;;;;17.10;8.32;;;9.50;99.90;;;8.04;100.00;100045.88;2567327;30;138450;-41
2021/12/24 11:26:39;;;;;;;23.63;8.95;;;9.60;99.90;;;8.02;100.00;100039.84;2567289;30;138357;-41
2021/12/24 11:29:07;;;;;;;19.92;8.70;;;9.50;99.90;;;7.97;100.00;100032.31;2567945;30;136994;-41
2021/12/24 11:31:36;;;;;;;19.80;9.25;;;9.50;99.90;;;8.00;100.00;100036.50;2565180;30;137759;-41
2021/12/24 11:34:05;;;;;;;19.75;8.68;;;9.50;99.90;;;7.94;100.00;100040.06;2568479;30;137758;-41
2021/12/24 11:36:32;;;;;;;18.80;8.93;;;9.50;99.90;;;7.89;100.00;100041.53;2567761;30;136760;-41
2021/12/24 11:39:06;;;;;;;20.90;9.15;;;9.50;99.90;;;7.88;100.00;100045.31;2567038;30;137148;-41
2021/12/24 11:41:36;;;;;;;25.63;9.18;;;9.40;99.90;;;7.87;100.00;100040.91;2566104;30;137015;-41
2021/12/24 11:44:07;;;;;;;21.42;9.25;;;9.40;99.90;;;7.81;100.00;100028.19;2565714;30;137444;-41
2021/12/24 11:46:39;;;;;;;18.92;9.80;;;9.40;99.90;;;7.93;100.00;100039.25;2564168;30;139186;-41
2021/12/24 11:49:07;;;;;;;17.60;8.15;;;9.40;99.90;;;7.92;100.00;100030.25;2567801;30;137481;-41
2021/12/24 11:51:41;;;;;;;19.27;9.70;;;9.50;99.90;;;7.95;100.00;100025.44;2567720;30;137324;-41
2021/12/24 11:54:12;;;;;;;19.83;9.43;;;9.50;99.90;;;7.98;100.00;100016.88;2567907;30;136698;-41
2021/12/24 11:56:47;;;;;;;19.42;9.07;;;9.50;99.90;;;7.96;100.00;100021.69;2567686;30;139369;-41
2021/12/24 11:59:15;;;;;;;20.58;9.70;;;9.50;99.90;;;7.97;100.00;100020.63;2568554;30;136953;-41